Graf, Nebraska
Current Conditions -  °F | °C
As of 2:55 PM on Friday 31 Oct 2014 (Local Time) from KAFK Reporting Station
Clear Clear  
Wind Chill: 37°   Ceiling: Unl
Heat Index: 43°   Visibility: 10mi
Dew Point: 11°   Wind: 12mph
Humidity: 27%   Direction: 30°NNE
Pressure: 30.49"   Gusts: NA
Location:  40.3627°N, 96.254°W
Report Text: KAFK 311955Z AUTO 03010KT 10SM CLR 06/M12 A3049 RMK AO2 T00601117
Loading
Personal Weather Stations






























Interactive Weather Map
Tropical Storm Tracking
New forecast layout! Learn more

10-Day Weather Forecast

Advertisements
Track Severe Weather on mobile